Thursday, July 19, 2018, 1:35 AM EDT
Back to Local

KILG, Wilmington New Castle Co

Location: New Castle, DE, United States Lat: 39.667
Local Time: 1:35 AM EDT ( 5:35 GMT) Lon: -75.6
Time Zone: US/Eastern Elev: 78 ft

Show me the last for .
Show Decoded

2018-07-19 00:51 METAR KILG 190451Z AUTO 01006KT 10SM CLR 21/13 A3002 RMK AO2 SLP163 T02110128
                 403110206 =
2018-07-18 23:51 METAR KILG 190351Z AUTO 02007KT 10SM CLR 21/14 A3000 RMK AO2 SLP156 T02110139 =
2018-07-18 22:51 METAR KILG 190251Z AUTO 35004KT 10SM CLR 21/16 A2998 RMK AO2 SLP152 T02110156
                 51014 =
2018-07-18 21:51 METAR KILG 190151Z 33006KT 10SM CLR 22/15 A2997 RMK AO2 SLP150 T02220150 =
2018-07-18 20:51 METAR KILG 190051Z 35003KT 10SM CLR 25/14 A2995 RMK AO2 SLP142 T02500144 =
2018-07-18 19:51 METAR KILG 182351Z 35006KT 10SM CLR 28/13 A2994 RMK AO2 SLP138 T02780133 10311
                 20278 53009 =
2018-07-18 18:51 METAR KILG 182251Z 34008KT 10SM CLR 29/13 A2993 RMK AO2 SLP133 T02890133 =
2018-07-18 17:51 METAR KILG 182151Z 01010KT 10SM CLR 29/14 A2992 RMK AO2 SLP130 T02940139 =
2018-07-18 16:51 METAR KILG 182051Z 34012KT 10SM CLR 30/15 A2992 RMK AO2 SLP129 T03000150 58003 =
2018-07-18 15:51 METAR KILG 181951Z 35006KT 10SM FEW060 FEW075 OVC090 30/14 A2992 RMK AO2 SLP131
                 T03000144 =
2018-07-18 14:51 METAR KILG 181851Z 01010KT 10SM FEW060 31/15 A2993 RMK AO2 SLP132 T03060150 =
2018-07-18 13:51 METAR KILG 181751Z 34011KT 10SM SCT050 BKN075 29/16 A2993 RMK AO2 SLP133
                 T02940161 10300 20217 55003 =
2018-07-18 12:51 METAR KILG 181651Z 35011G15KT 10SM SCT047 28/16 A2993 RMK AO2 SLP132 T02830161 =
2018-07-18 11:51 METAR KILG 181551Z 35008KT 10SM CLR 28/17 A2993 RMK AO2 SLP134 T02830167 =
2018-07-18 10:51 METAR KILG 181451Z 35010KT 10SM CLR 27/17 A2994 RMK AO2 SLP136 T02720167 51009 =
2018-07-18 09:51 METAR KILG 181351Z 34010G14KT 10SM CLR 26/17 A2993 RMK AO2 SLP134 T02560167 =
2018-07-18 08:51 METAR KILG 181251Z 33012KT 10SM CLR 24/17 A2992 RMK AO2 SLP132 T02390167 =
2018-07-18 07:51 METAR KILG 181151Z 34008KT 10SM BKN075 22/16 A2991 RMK AO2 SLP128 70038
                 T02170161 10222 20206 53009 =
2018-07-18 06:51 METAR KILG 181051Z 35005KT 10SM FEW075 22/18 A2990 RMK AO2 SLP124 T02170178 $ =
2018-07-18 05:51 METAR KILG 180951Z AUTO 35007KT 10SM SCT070 21/18 A2989 RMK AO2 SLP120 T02110183
                 $ =
2018-07-18 04:51 METAR KILG 180851Z AUTO 32003KT 10SM OVC070 22/20 A2988 RMK AO2 SLP118 T02170200
                 53014 $ =
2018-07-18 03:51 METAR KILG 180751Z AUTO 34005KT 10SM CLR 22/20 A2987 RMK AO2 SLP114 T02170200 $
                 =
2018-07-18 02:51 METAR KILG 180651Z AUTO 33009KT 10SM SCT060 22/22 A2984 RMK AO2 SLP105 T02220217
                 $ =
2018-07-18 01:51 METAR KILG 180551Z AUTO 33007KT 10SM CLR 22/22 A2984 RMK AO2 SLP104 T02220217
                 10250 20222 53001 =

Support USWX by starting your Amazon purchase here.